Time;durP1;ratioP1;P1;durP2;ratioP2;P2;SDS_P1;SDS_P2;PMS_P1;PMS_P2;Temp;Humidity;BMP_temperature;BMP_pressure;BME280_temperature;BME280_humidity;BME280_pressure;Samples;Min_cycle;Max_cycle;Signal;HPM_P1;HPM_P2
2021/12/28 00:00:33;;;;;;;;;;;8.90;99.90;;;;;;5050519;28;19935;-60
2021/12/28 00:03:01;;;;;;;;;;;9.00;99.90;;;;;;5062527;28;19927;-60
2021/12/28 00:05:29;;;;;;;;;;;8.90;99.90;;;;;;5035144;28;19925;-64
2021/12/28 00:07:56;;;;;;;;;;;8.90;99.90;;;;;;5053441;28;20014;-64
2021/12/28 00:10:23;;;;;;;;;;;8.90;99.90;;;;;;5061215;28;19921;-62
2021/12/28 00:12:51;;;;;;;;;;;8.90;99.90;;;;;;5054847;28;19943;-60
2021/12/28 00:15:33;;;;;;;;;;;9.00;99.90;;;;;;5070817;28;19920;-60
2021/12/28 00:18:04;;;;;;;;;;;9.00;99.90;;;;;;5065064;28;19924;-62
2021/12/28 00:20:36;;;;;;;;;;;8.90;99.90;;;;;;5071322;28;19924;-63
2021/12/28 00:23:04;;;;;;;;;;;9.00;99.90;;;;;;5070792;28;20430;-61
2021/12/28 00:25:32;;;;;;;;;;;8.90;99.90;;;;;;5052744;28;19930;-62
2021/12/28 00:28:00;;;;;;;;;;;8.90;99.90;;;;;;5058127;28;20110;-64
2021/12/28 00:30:29;;;;;;;;;;;8.90;99.90;;;;;;5052390;28;19921;-60
2021/12/28 00:32:57;;;;;;;;;;;8.90;99.90;;;;;;5070756;28;19920;-60
2021/12/28 00:35:26;;;;;;;;;;;9.00;99.90;;;;;;5070731;28;20272;-60
2021/12/28 00:37:54;;;;;;;;;;;8.90;99.90;;;;;;5069002;28;20394;-60
2021/12/28 00:40:22;;;;;;;;;;;8.90;99.90;;;;;;5070961;28;19920;-60
2021/12/28 00:42:50;;;;;;;;;;;8.90;99.90;;;;;;5039336;28;19924;-60
2021/12/28 00:45:17;;;;;;;;;;;8.90;99.90;;;;;;5041032;28;19921;-61
2021/12/28 00:47:45;;;;;;;;;;;9.00;99.90;;;;;;5053397;28;19921;-61
2021/12/28 00:50:13;;;;;;;;;;;8.90;99.90;;;;;;5058011;28;20391;-62
2021/12/28 00:52:41;;;;;;;;;;;8.90;99.90;;;;;;5065053;28;20419;-60
2021/12/28 00:55:09;;;;;;;;;;;9.00;99.90;;;;;;5052761;28;20291;-60
2021/12/28 00:57:37;;;;;;;;;;;9.00;99.90;;;;;;5068862;28;20184;-59
2021/12/28 01:00:06;;;;;;;;;;;9.00;99.90;;;;;;5052215;28;20339;-60
2021/12/28 01:02:33;;;;;;;;;;;9.00;99.90;;;;;;5066900;28;20313;-59
2021/12/28 01:05:01;;;;;;;;;;;9.00;99.90;;;;;;5054784;28;20144;-60
2021/12/28 01:07:28;;;;;;;;;;;9.00;99.90;;;;;;5061853;28;19994;-60
2021/12/28 01:09:55;;;;;;;;;;;9.00;99.90;;;;;;5052755;28;19927;-60
2021/12/28 01:12:23;;;;;;;;;;;9.00;99.90;;;;;;5069873;28;20137;-61
2021/12/28 01:14:50;;;;;;;;;;;9.00;99.90;;;;;;5070161;28;19920;-59
2021/12/28 01:17:18;;;;;;;;;;;9.00;99.90;;;;;;5052139;28;20368;-60
2021/12/28 01:19:45;;;;;;;;;;;9.00;99.90;;;;;;5069303;28;19924;-59
2021/12/28 01:22:13;;;;;;;;;;;9.00;99.90;;;;;;5085766;28;19925;-61
2021/12/28 01:24:41;;;;;;;;;;;9.00;99.90;;;;;;5069941;28;19920;-60
2021/12/28 01:27:08;;;;;;;;;;;9.10;99.90;;;;;;5051726;28;20376;-60
2021/12/28 01:29:36;;;;;;;;;;;9.10;99.90;;;;;;5069716;28;20394;-60
2021/12/28 01:32:03;;;;;;;;;;;9.00;99.90;;;;;;5050929;28;19924;-62
2021/12/28 01:34:31;;;;;;;;;;;9.00;99.90;;;;;;5064925;28;19935;-60
2021/12/28 01:36:58;;;;;;;;;;;9.00;99.90;;;;;;5069681;28;19920;-60
2021/12/28 01:39:26;;;;;;;;;;;9.00;99.90;;;;;;5069533;28;19920;-60
2021/12/28 01:41:53;;;;;;;;;;;9.10;99.90;;;;;;5054078;28;19920;-60
2021/12/28 01:44:22;;;;;;;;;;;9.00;99.90;;;;;;5044877;28;19920;-61
2021/12/28 01:46:49;;;;;;;;;;;9.00;99.90;;;;;;5040043;28;20292;-59
2021/12/28 01:49:17;;;;;;;;;;;9.10;99.90;;;;;;5064561;28;19921;-59
2021/12/28 01:51:45;;;;;;;;;;;9.10;99.90;;;;;;5051940;28;19920;-60
2021/12/28 01:54:12;;;;;;;;;;;9.10;99.90;;;;;;5068096;28;19920;-59
2021/12/28 01:56:44;;;;;;;;;;;9.10;99.90;;;;;;5069422;28;20402;-63
2021/12/28 01:59:13;;;;;;;;;;;9.10;99.90;;;;;;5069560;28;19932;-61
2021/12/28 02:01:41;;;;;;;;;;;9.10;99.90;;;;;;5052309;28;20372;-60
2021/12/28 02:04:15;;;;;;;;;;;9.10;99.90;;;;;;5061389;28;19928;-59
2021/12/28 02:06:43;;;;;;;;;;;9.10;99.90;;;;;;5069277;28;19943;-60
2021/12/28 02:09:11;;;;;;;;;;;9.10;99.90;;;;;;5049375;28;19924;-59
2021/12/28 02:11:38;;;;;;;;;;;9.10;99.90;;;;;;5031654;28;19921;-59
2021/12/28 02:14:08;;;;;;;;;;;9.10;99.90;;;;;;5060284;28;19920;-60
2021/12/28 02:16:37;;;;;;;;;;;9.10;99.90;;;;;;5068226;28;19924;-59
2021/12/28 02:19:06;;;;;;;;;;;9.10;99.90;;;;;;5062041;28;19924;-59
2021/12/28 02:21:33;;;;;;;;;;;9.10;99.90;;;;;;5051112;28;19921;-59
2021/12/28 02:24:03;;;;;;;;;;;9.10;99.90;;;;;;5038088;28;19921;-60
2021/12/28 02:26:30;;;;;;;;;;;9.10;99.90;;;;;;5049150;28;19921;-63
2021/12/28 02:28:58;;;;;;;;;;;9.00;99.90;;;;;;5060003;28;19920;-62
2021/12/28 02:31:26;;;;;;;;;;;8.90;99.90;;;;;;5067436;28;19925;-62
2021/12/28 02:33:54;;;;;;;;;;;8.90;99.90;;;;;;5071311;28;20295;-63
2021/12/28 02:36:21;;;;;;;;;;;8.80;99.90;;;;;;5055172;28;19921;-64
2021/12/28 02:38:49;;;;;;;;;;;8.80;99.90;;;;;;5063069;28;20276;-62
2021/12/28 02:41:16;;;;;;;;;;;8.80;99.90;;;;;;5053447;28;20379;-63
2021/12/28 02:43:47;;;;;;;;;;;8.80;99.90;;;;;;5070238;28;20491;-63
2021/12/28 02:46:16;;;;;;;;;;;8.80;99.90;;;;;;5042413;28;19920;-64
2021/12/28 02:48:44;;;;;;;;;;;8.80;99.90;;;;;;5056297;28;19921;-64
2021/12/28 02:51:13;;;;;;;;;;;8.80;99.90;;;;;;5065660;28;20737;-64
2021/12/28 02:53:41;;;;;;;;;;;8.80;99.90;;;;;;5054196;28;19920;-64
2021/12/28 02:56:09;;;;;;;;;;;8.70;99.90;;;;;;5072187;28;19943;-64
2021/12/28 02:58:38;;;;;;;;;;;8.80;99.90;;;;;;5054701;28;19928;-64
2021/12/28 03:01:09;;;;;;;;;;;8.80;99.90;;;;;;5052065;28;19925;-64
2021/12/28 03:03:37;;;;;;;;;;;8.80;99.90;;;;;;5033861;28;20288;-64
2021/12/28 03:06:06;;;;;;;;;;;8.80;99.90;;;;;;5053059;28;19920;-63
2021/12/28 03:08:35;;;;;;;;;;;8.80;99.90;;;;;;5052192;28;20391;-64
2021/12/28 03:11:04;;;;;;;;;;;8.80;99.90;;;;;;5071930;28;19921;-60
2021/12/28 03:13:39;;;;;;;;;;;8.80;99.90;;;;;;5071400;28;19920;-61
2021/12/28 03:16:06;;;;;;;;;;;8.80;99.90;;;;;;5071954;28;19924;-59
2021/12/28 03:18:34;;;;;;;;;;;8.80;99.90;;;;;;5071970;28;19931;-60
2021/12/28 03:21:03;;;;;;;;;;;8.90;99.90;;;;;;5071901;28;19920;-59
2021/12/28 03:23:30;;;;;;;;;;;8.90;99.90;;;;;;5057333;28;19921;-59
2021/12/28 03:25:58;;;;;;;;;;;8.90;99.90;;;;;;5060759;28;20371;-59
2021/12/28 03:28:35;;;;;;;;;;;8.80;99.90;;;;;;5058070;28;20418;-59
2021/12/28 03:31:04;;;;;;;;;;;8.80;99.90;;;;;;5069236;28;19927;-60
2021/12/28 03:33:33;;;;;;;;;;;8.90;99.90;;;;;;5049139;28;19920;-59
2021/12/28 03:36:01;;;;;;;;;;;8.90;99.90;;;;;;5075154;28;20491;-58
2021/12/28 03:38:28;;;;;;;;;;;8.80;99.90;;;;;;5091438;28;19928;-59
2021/12/28 03:40:56;;;;;;;;;;;8.90;99.90;;;;;;5075771;28;19932;-59
2021/12/28 03:43:23;;;;;;;;;;;8.90;99.90;;;;;;5058182;28;19920;-59
2021/12/28 03:45:51;;;;;;;;;;;8.90;99.90;;;;;;5055438;28;19920;-59
2021/12/28 03:48:19;;;;;;;;;;;8.90;99.90;;;;;;5057959;28;19928;-59
2021/12/28 03:50:46;;;;;;;;;;;8.80;99.90;;;;;;5075334;28;19924;-59
2021/12/28 03:53:14;;;;;;;;;;;8.90;99.90;;;;;;5075322;28;19920;-59
2021/12/28 03:55:41;;;;;;;;;;;8.90;99.90;;;;;;5055764;28;19928;-59
2021/12/28 03:58:09;;;;;;;;;;;8.90;99.90;;;;;;5075289;28;19935;-59
2021/12/28 04:00:41;;;;;;;;;;;8.90;99.90;;;;;;5062463;28;19924;-59
2021/12/28 04:03:09;;;;;;;;;;;8.90;99.90;;;;;;5055141;28;19920;-59
2021/12/28 04:05:39;;;;;;;;;;;8.90;99.90;;;;;;5055439;28;20395;-59
2021/12/28 04:08:07;;;;;;;;;;;8.90;99.90;;;;;;5041680;28;19921;-59
2021/12/28 04:10:49;;;;;;;;;;;8.90;99.90;;;;;;5055023;28;19920;-59
2021/12/28 04:13:17;;;;;;;;;;;8.90;99.90;;;;;;5055014;28;19933;-59
2021/12/28 04:15:45;;;;;;;;;;;8.90;99.90;;;;;;5060023;28;19927;-59
2021/12/28 04:18:13;;;;;;;;;;;8.90;99.90;;;;;;5065832;28;19928;-59
2021/12/28 04:20:41;;;;;;;;;;;8.90;99.90;;;;;;5054585;28;20395;-59
2021/12/28 04:23:08;;;;;;;;;;;8.90;99.90;;;;;;5054806;28;19921;-58
2021/12/28 04:25:36;;;;;;;;;;;8.90;99.90;;;;;;5074406;28;20404;-60
2021/12/28 04:28:03;;;;;;;;;;;8.90;99.90;;;;;;5074843;28;19921;-63
2021/12/28 04:30:31;;;;;;;;;;;8.90;99.90;;;;;;5074182;28;19927;-59
2021/12/28 04:32:58;;;;;;;;;;;8.90;99.90;;;;;;5054757;28;19921;-59
2021/12/28 04:35:26;;;;;;;;;;;8.90;99.90;;;;;;5054722;28;19928;-63
2021/12/28 04:37:53;;;;;;;;;;;8.90;99.90;;;;;;5061685;28;19921;-59
2021/12/28 04:40:22;;;;;;;;;;;9.00;99.90;;;;;;5074556;28;19920;-59
2021/12/28 04:42:50;;;;;;;;;;;8.90;99.90;;;;;;5072779;28;19943;-60
2021/12/28 04:45:18;;;;;;;;;;;8.90;99.90;;;;;;5056765;28;19921;-59
2021/12/28 04:47:45;;;;;;;;;;;9.00;99.90;;;;;;5073929;28;20410;-58
2021/12/28 04:50:13;;;;;;;;;;;8.90;99.90;;;;;;5068679;28;19928;-58
2021/12/28 04:52:41;;;;;;;;;;;8.90;99.90;;;;;;5054332;28;20285;-58
2021/12/28 04:55:13;;;;;;;;;;;9.00;99.90;;;;;;5054438;28;20391;-59
2021/12/28 04:57:41;;;;;;;;;;;8.90;99.90;;;;;;5058693;28;19928;-59
2021/12/28 05:00:11;;;;;;;;;;;9.00;99.90;;;;;;5074102;28;19920;-63
2021/12/28 05:02:39;;;;;;;;;;;8.90;99.90;;;;;;5074147;28;19927;-64
2021/12/28 05:05:11;;;;;;;;;;;9.00;99.90;;;;;;5074092;28;19927;-63
2021/12/28 05:07:38;;;;;;;;;;;8.90;99.90;;;;;;5073758;28;19921;-63
2021/12/28 05:10:06;;;;;;;;;;;8.90;99.90;;;;;;5057383;28;19920;-63
2021/12/28 05:12:34;;;;;;;;;;;8.90;99.90;;;;;;5036214;28;19921;-64
2021/12/28 05:15:02;;;;;;;;;;;8.90;99.90;;;;;;5036294;28;19921;-64
2021/12/28 05:17:29;;;;;;;;;;;8.90;99.90;;;;;;5053736;28;19928;-64
2021/12/28 05:19:57;;;;;;;;;;;8.90;99.90;;;;;;5053924;28;19932;-64
2021/12/28 05:22:24;;;;;;;;;;;9.00;99.90;;;;;;5055026;28;19935;-64
2021/12/28 05:24:52;;;;;;;;;;;9.00;99.90;;;;;;5053814;28;19921;-64
2021/12/28 05:27:19;;;;;;;;;;;9.00;99.90;;;;;;5053554;28;19932;-64
2021/12/28 05:29:47;;;;;;;;;;;9.00;99.90;;;;;;5053411;28;19921;-64
2021/12/28 05:32:14;;;;;;;;;;;8.90;99.90;;;;;;5055827;28;19925;-64
2021/12/28 05:34:42;;;;;;;;;;;9.00;99.90;;;;;;5073601;28;19950;-65
2021/12/28 05:37:09;;;;;;;;;;;9.00;99.90;;;;;;5070147;28;19924;-64
2021/12/28 05:39:37;;;;;;;;;;;8.90;99.90;;;;;;5053370;28;19932;-63
2021/12/28 05:42:04;;;;;;;;;;;8.90;99.90;;;;;;5036880;28;19928;-64
2021/12/28 05:44:32;;;;;;;;;;;8.90;99.90;;;;;;5053400;28;19931;-64
2021/12/28 05:46:59;;;;;;;;;;;8.90;99.90;;;;;;5051145;28;19921;-62
2021/12/28 05:49:27;;;;;;;;;;;8.90;99.90;;;;;;5049583;28;19925;-62
2021/12/28 05:51:54;;;;;;;;;;;9.00;99.90;;;;;;5049785;28;19921;-64
2021/12/28 05:54:22;;;;;;;;;;;9.00;99.90;;;;;;5053609;28;19921;-61
2021/12/28 05:56:49;;;;;;;;;;;9.00;99.90;;;;;;5049621;28;19921;-60
2021/12/28 05:59:17;;;;;;;;;;;9.00;99.90;;;;;;5067409;28;20371;-59
2021/12/28 06:01:45;;;;;;;;;;;8.90;99.90;;;;;;5065912;28;19929;-59
2021/12/28 06:04:12;;;;;;;;;;;8.90;99.90;;;;;;5041706;28;19924;-60
2021/12/28 06:06:40;;;;;;;;;;;9.00;99.90;;;;;;5046168;28;20377;-59
2021/12/28 06:09:07;;;;;;;;;;;9.00;99.90;;;;;;5064120;28;19921;-60
2021/12/28 06:11:35;;;;;;;;;;;9.00;99.90;;;;;;5047505;28;19921;-59
2021/12/28 06:14:03;;;;;;;;;;;9.00;99.90;;;;;;5080119;28;19924;-59
2021/12/28 06:16:34;;;;;;;;;;;9.00;99.90;;;;;;5059067;28;19924;-59
2021/12/28 06:19:03;;;;;;;;;;;9.00;99.90;;;;;;5063400;28;20291;-59
2021/12/28 06:21:31;;;;;;;;;;;9.00;99.90;;;;;;5069014;28;20095;-61
2021/12/28 06:23:59;;;;;;;;;;;8.90;99.90;;;;;;5067793;28;19924;-60
2021/12/28 06:26:28;;;;;;;;;;;9.00;99.90;;;;;;5065664;28;19931;-62
2021/12/28 06:28:56;;;;;;;;;;;8.90;99.90;;;;;;5065292;28;20291;-60
2021/12/28 06:31:28;;;;;;;;;;;8.90;99.90;;;;;;5046527;28;20387;-59
2021/12/28 06:33:57;;;;;;;;;;;8.90;99.90;;;;;;5065610;28;19943;-60
2021/12/28 06:36:26;;;;;;;;;;;9.00;99.90;;;;;;5032044;28;19924;-62
2021/12/28 06:38:53;;;;;;;;;;;8.90;99.90;;;;;;5064969;28;19927;-61
2021/12/28 06:41:22;;;;;;;;;;;8.90;99.90;;;;;;5047621;28;19927;-59
2021/12/28 06:43:50;;;;;;;;;;;8.90;99.90;;;;;;5067154;28;19920;-61
2021/12/28 06:46:17;;;;;;;;;;;8.90;99.90;;;;;;5052835;28;19931;-59
2021/12/28 06:48:45;;;;;;;;;;;9.00;99.90;;;;;;5059514;28;19925;-59
2021/12/28 06:51:13;;;;;;;;;;;8.90;99.90;;;;;;5017938;28;19931;-61
2021/12/28 06:53:40;;;;;;;;;;;8.90;99.90;;;;;;5060679;28;19928;-60
2021/12/28 06:56:08;;;;;;;;;;;8.90;99.90;;;;;;5052749;28;19925;-59
2021/12/28 06:58:36;;;;;;;;;;;8.90;99.90;;;;;;5061301;28;20367;-60
2021/12/28 07:01:04;;;;;;;;;;;8.90;99.90;;;;;;5066092;28;19920;-59
2021/12/28 07:03:31;;;;;;;;;;;8.90;99.90;;;;;;5030190;28;19921;-60
2021/12/28 07:05:59;;;;;;;;;;;9.00;99.90;;;;;;5051273;28;19920;-59
2021/12/28 07:08:26;;;;;;;;;;;8.90;99.90;;;;;;5039739;28;19925;-60
2021/12/28 07:10:54;;;;;;;;;;;8.90;99.90;;;;;;5030822;28;19927;-59
2021/12/28 07:13:21;;;;;;;;;;;9.00;99.90;;;;;;5055837;28;20257;-61
2021/12/28 07:15:53;;;;;;;;;;;9.00;99.90;;;;;;5047908;28;19924;-59
2021/12/28 07:18:21;;;;;;;;;;;8.90;99.90;;;;;;5049235;28;19987;-59
2021/12/28 07:20:48;;;;;;;;;;;8.90;99.90;;;;;;5048061;28;19924;-59
2021/12/28 07:23:16;;;;;;;;;;;8.90;99.90;;;;;;5059429;28;20304;-58
2021/12/28 07:25:44;;;;;;;;;;;8.90;99.90;;;;;;5064704;28;19927;-59
2021/12/28 07:28:11;;;;;;;;;;;8.90;99.90;;;;;;5062414;28;20410;-59
2021/12/28 07:30:44;;;;;;;;;;;9.00;99.90;;;;;;5047500;28;19921;-61
2021/12/28 07:33:12;;;;;;;;;;;8.80;99.90;;;;;;5059312;28;20360;-59
2021/12/28 07:35:39;;;;;;;;;;;8.80;99.90;;;;;;5049488;28;19943;-61
2021/12/28 07:38:07;;;;;;;;;;;8.80;99.90;;;;;;5051520;28;20280;-60
2021/12/28 07:40:34;;;;;;;;;;;8.80;99.90;;;;;;5031242;28;19921;-59
2021/12/28 07:43:02;;;;;;;;;;;8.80;99.90;;;;;;5057175;28;19921;-61
2021/12/28 07:45:29;;;;;;;;;;;8.70;99.90;;;;;;5049883;28;19921;-60
2021/12/28 07:47:57;;;;;;;;;;;8.70;99.90;;;;;;5049648;28;19920;-63
2021/12/28 07:50:24;;;;;;;;;;;8.60;99.90;;;;;;5053179;28;19924;-61
2021/12/28 07:52:52;;;;;;;;;;;8.50;99.90;;;;;;5048244;28;20360;-62
2021/12/28 07:55:20;;;;;;;;;;;8.40;99.90;;;;;;5029412;28;19920;-61
2021/12/28 07:57:47;;;;;;;;;;;8.40;99.90;;;;;;5048357;28;19924;-64
2021/12/28 08:00:16;;;;;;;;;;;8.30;99.90;;;;;;5063604;28;19928;-61
2021/12/28 08:02:44;;;;;;;;;;;8.30;99.90;;;;;;5045733;28;19921;-63
2021/12/28 08:05:13;;;;;;;;;;;8.20;99.90;;;;;;5055868;28;19927;-60
2021/12/28 08:07:41;;;;;;;;;;;8.00;99.90;;;;;;5064831;28;19920;-61
2021/12/28 08:10:09;;;;;;;;;;;7.90;99.90;;;;;;5047780;28;19943;-60
2021/12/28 08:12:37;;;;;;;;;;;7.80;99.90;;;;;;5056429;28;19927;-61
2021/12/28 08:15:04;;;;;;;;;;;7.70;99.90;;;;;;5066934;28;19921;-60
2021/12/28 08:17:32;;;;;;;;;;;7.70;99.90;;;;;;5054987;28;19931;-60
2021/12/28 08:20:00;;;;;;;;;;;7.60;99.90;;;;;;5071234;28;20291;-60
2021/12/28 08:22:27;;;;;;;;;;;7.60;99.90;;;;;;5071076;28;19982;-60
2021/12/28 08:24:55;;;;;;;;;;;7.50;99.90;;;;;;5070742;28;19935;-62
2021/12/28 08:27:22;;;;;;;;;;;7.50;99.90;;;;;;5051888;28;20318;-64
2021/12/28 08:29:50;;;;;;;;;;;7.50;99.90;;;;;;5048584;28;19920;-60
2021/12/28 08:32:17;;;;;;;;;;;7.40;99.90;;;;;;5071025;28;20330;-60
2021/12/28 08:34:45;;;;;;;;;;;7.40;99.90;;;;;;5052977;28;19927;-59
2021/12/28 08:37:17;;;;;;;;;;;7.40;99.90;;;;;;5049128;28;19928;-60
2021/12/28 08:39:44;;;;;;;;;;;7.40;99.90;;;;;;5056036;28;20181;-63
2021/12/28 08:42:12;;;;;;;;;;;7.40;99.90;;;;;;5063849;28;19927;-62
2021/12/28 08:44:39;;;;;;;;;;;7.40;99.90;;;;;;5049559;28;19931;-60
2021/12/28 08:47:07;;;;;;;;;;;7.40;99.90;;;;;;5040782;28;20367;-61
2021/12/28 08:49:35;;;;;;;;;;;7.30;99.90;;;;;;5043281;28;20360;-60
2021/12/28 08:52:03;;;;;;;;;;;7.40;99.90;;;;;;5057386;28;19928;-60
2021/12/28 08:54:31;;;;;;;;;;;7.30;99.90;;;;;;5055708;28;19924;-60
2021/12/28 08:56:59;;;;;;;;;;;7.30;99.90;;;;;;5060086;28;19920;-59
2021/12/28 08:59:26;;;;;;;;;;;7.30;99.90;;;;;;5058224;28;19921;-59
2021/12/28 09:01:56;;;;;;;;;;;7.30;99.90;;;;;;5046447;28;20299;-60
2021/12/28 09:04:23;;;;;;;;;;;7.30;99.90;;;;;;5050602;28;19928;-60
2021/12/28 09:06:51;;;;;;;;;;;7.30;99.90;;;;;;5060872;28;20299;-59
2021/12/28 09:09:18;;;;;;;;;;;7.30;99.90;;;;;;5066935;28;19925;-62
2021/12/28 09:11:47;;;;;;;;;;;7.30;99.90;;;;;;5058798;28;19943;-59
2021/12/28 09:14:14;;;;;;;;;;;7.30;99.90;;;;;;5053317;28;20411;-60
2021/12/28 09:16:41;;;;;;;;;;;7.40;99.90;;;;;;5049257;28;19939;-60
2021/12/28 09:19:09;;;;;;;;;;;7.40;99.90;;;;;;5049987;28;19924;-60
2021/12/28 09:21:37;;;;;;;;;;;7.40;99.90;;;;;;5047054;28;20103;-59
2021/12/28 09:24:06;;;;;;;;;;;7.50;99.90;;;;;;5045526;28;20295;-60
2021/12/28 09:26:53;;;;;;;;;;;7.50;99.90;;;;;;5059233;28;19924;-60
2021/12/28 09:29:21;;;;;;;;;;;7.50;99.90;;;;;;5058071;28;19927;-59
2021/12/28 09:31:49;;;;;;;;;;;7.50;99.90;;;;;;5063710;28;20370;-60
2021/12/28 09:34:16;;;;;;;;;;;7.50;99.90;;;;;;5064082;28;19924;-59
2021/12/28 09:36:56;;;;;;;;;;;7.50;99.90;;;;;;5061654;28;19955;-58
2021/12/28 09:39:26;;;;;;;;;;;7.50;99.90;;;;;;5065458;28;19927;-58
2021/12/28 09:41:55;;;;;;;;;;;7.50;99.90;;;;;;5048040;28;20381;-58
2021/12/28 09:44:23;;;;;;;;;;;7.50;99.90;;;;;;5058638;28;19920;-59
2021/12/28 09:46:50;;;;;;;;;;;7.50;99.90;;;;;;5054551;28;19925;-61
2021/12/28 09:49:18;;;;;;;;;;;7.40;99.90;;;;;;5058430;28;19925;-59
2021/12/28 09:51:46;;;;;;;;;;;7.40;99.90;;;;;;5057018;28;19924;-61
2021/12/28 09:54:15;;;;;;;;;;;7.40;99.90;;;;;;5048176;28;19921;-60
2021/12/28 09:56:42;;;;;;;;;;;7.50;99.90;;;;;;5048271;28;19925;-59
2021/12/28 09:59:10;;;;;;;;;;;7.50;99.90;;;;;;5059388;28;19924;-60
2021/12/28 10:01:37;;;;;;;;;;;7.50;99.90;;;;;;5062219;28;19924;-59
2021/12/28 10:04:05;;;;;;;;;;;7.40;99.90;;;;;;5046652;28;19921;-59
2021/12/28 10:06:33;;;;;;;;;;;7.50;99.90;;;;;;5059681;28;20296;-60
2021/12/28 10:09:03;;;;;;;;;;;7.50;99.90;;;;;;5063992;28;20304;-61
2021/12/28 10:11:35;;;;;;;;;;;7.50;99.90;;;;;;5048527;28;20162;-59
2021/12/28 10:14:13;;;;;;;;;;;7.50;99.90;;;;;;5036149;28;19920;-59
2021/12/28 10:16:47;;;;;;;;;;;7.60;99.90;;;;;;5058309;28;19921;-60
2021/12/28 10:19:44;;;;;;;;;;;7.60;99.90;;;;;;5063550;28;20382;-60
2021/12/28 10:22:22;;;;;;;;;;;7.70;99.90;;;;;;5038964;28;19927;-60
2021/12/28 10:24:51;;;;;;;;;;;7.70;99.90;;;;;;5049065;28;20295;-62
2021/12/28 10:27:21;;;;;;;;;;;7.80;99.90;;;;;;5049945;28;19920;-60
2021/12/28 10:29:48;;;;;;;;;;;7.90;99.90;;;;;;5032549;28;19921;-63
2021/12/28 10:32:17;;;;;;;;;;;7.90;99.90;;;;;;5028864;28;19928;-62
2021/12/28 10:34:45;;;;;;;;;;;8.00;99.90;;;;;;5051069;28;20380;-62
2021/12/28 10:37:14;;;;;;;;;;;8.00;99.90;;;;;;5053955;28;20711;-60
2021/12/28 10:39:46;;;;;;;;;;;8.10;99.90;;;;;;5034942;28;19928;-59
2021/12/28 10:42:37;;;;;;;;;;;8.10;99.90;;;;;;5047176;28;20372;-59
2021/12/28 10:45:07;;;;;;;;;;;8.10;99.90;;;;;;5043224;28;19936;-59
2021/12/28 10:47:35;;;;;;;;;;;8.10;99.90;;;;;;5042347;28;19921;-58
2021/12/28 10:50:18;;;;;;;;;;;8.10;99.90;;;;;;5049557;28;19920;-59
2021/12/28 10:52:50;;;;;;;;;;;8.10;99.90;;;;;;5032854;28;20311;-59
2021/12/28 10:55:23;;;;;;;;;;;8.20;99.90;;;;;;5046627;28;19928;-59
2021/12/28 10:57:51;;;;;;;;;;;8.20;99.90;;;;;;5048388;28;19932;-59
2021/12/28 11:00:28;;;;;;;;;;;8.20;99.90;;;;;;5048072;28;19943;-59
2021/12/28 11:03:17;;;;;;;;;;;8.20;99.90;;;;;;5057901;28;19924;-59
2021/12/28 11:05:47;;;;;;;;;;;8.20;99.90;;;;;;5046710;28;19932;-61
2021/12/28 11:08:15;;;;;;;;;;;8.20;99.90;;;;;;5065186;28;20312;-60
2021/12/28 11:10:44;;;;;;;;;;;8.20;99.90;;;;;;5047244;28;20305;-60
2021/12/28 11:13:15;;;;;;;;;;;8.20;99.90;;;;;;5051637;28;20688;-59
2021/12/28 11:15:45;;;;;;;;;;;8.20;99.90;;;;;;5031602;28;20390;-61
2021/12/28 11:18:24;;;;;;;;;;;8.20;99.90;;;;;;5058256;28;19999;-59
2021/12/28 11:20:53;;;;;;;;;;;8.20;99.90;;;;;;5053150;28;19920;-60
2021/12/28 11:23:27;;;;;;;;;;;8.20;99.90;;;;;;5051280;28;19929;-61
2021/12/28 11:26:02;;;;;;;;;;;8.20;99.90;;;;;;5040440;28;19928;-59
2021/12/28 11:28:31;;;;;;;;;;;8.20;99.90;;;;;;5055662;28;19942;-62
2021/12/28 11:31:04;;;;;;;;;;;8.10;99.90;;;;;;5060186;28;19933;-61
2021/12/28 11:33:41;;;;;;;;;;;8.10;99.90;;;;;;5059042;28;19928;-59
2021/12/28 11:36:09;;;;;;;;;;;8.10;99.90;;;;;;5049010;28;19928;-59
2021/12/28 11:38:37;;;;;;;;;;;8.10;99.90;;;;;;5053558;28;20387;-59
2021/12/28 11:41:05;;;;;;;;;;;8.10;99.90;;;;;;5046376;28;19920;-59
2021/12/28 11:43:37;;;;;;;;;;;8.10;99.90;;;;;;5069413;28;19932;-59
2021/12/28 11:46:09;;;;;;;;;;;8.10;99.90;;;;;;5044708;28;19920;-62
2021/12/28 11:48:37;;;;;;;;;;;8.10;99.90;;;;;;5059907;28;19924;-61
2021/12/28 11:51:05;;;;;;;;;;;8.10;99.90;;;;;;5068775;28;19920;-59
2021/12/28 11:53:37;;;;;;;;;;;8.10;99.90;;;;;;5068496;28;19924;-59
2021/12/28 11:56:05;;;;;;;;;;;8.10;99.90;;;;;;5060219;28;19944;-61
2021/12/28 11:58:52;;;;;;;;;;;8.10;99.90;;;;;;5062678;28;20376;-59
2021/12/28 12:01:40;;;;;;;;;;;8.10;99.90;;;;;;5051953;28;19943;-60
2021/12/28 12:04:34;;;;;;;;;;;8.10;99.90;;;;;;5055133;28;19921;-59
2021/12/28 12:07:04;;;;;;;;;;;8.10;99.90;;;;;;5048583;28;19924;-59
2021/12/28 12:09:56;;;;;;;;;;;8.10;99.90;;;;;;5060279;28;19920;-59
2021/12/28 12:12:35;;;;;;;;;;;8.00;99.90;;;;;;5059008;28;19927;-59
2021/12/28 12:15:09;;;;;;;;;;;8.00;99.90;;;;;;5061367;28;19924;-59
2021/12/28 12:17:37;;;;;;;;;;;8.00;99.90;;;;;;5052119;28;20290;-59
2021/12/28 12:20:05;;;;;;;;;;;8.00;99.90;;;;;;5030952;28;19921;-62
2021/12/28 12:22:38;;;;;;;;;;;8.00;99.90;;;;;;5053171;28;20359;-60
2021/12/28 12:25:08;;;;;;;;;;;8.00;99.90;;;;;;5066265;28;19927;-59
2021/12/28 12:27:47;;;;;;;;;;;8.00;99.90;;;;;;5016318;28;20315;-61
2021/12/28 12:30:18;;;;;;;;;;;8.00;99.90;;;;;;5064787;28;20293;-59
2021/12/28 12:33:01;;;;;;;;;;;8.10;99.90;;;;;;5065527;28;19920;-60
2021/12/28 12:35:33;;;;;;;;;;;8.10;99.90;;;;;;5036654;28;19921;-59
2021/12/28 12:38:02;;;;;;;;;;;8.10;99.90;;;;;;5054348;28;19959;-59
2021/12/28 12:40:48;;;;;;;;;;;8.10;99.90;;;;;;5048648;28;19925;-59
2021/12/28 12:43:16;;;;;;;;;;;8.10;99.90;;;;;;5057485;28;19920;-59
2021/12/28 12:45:53;;;;;;;;;;;8.10;99.90;;;;;;5067130;28;19920;-60
2021/12/28 12:48:31;;;;;;;;;;;8.10;99.90;;;;;;5058827;28;19924;-59
2021/12/28 12:51:18;;;;;;;;;;;8.10;99.90;;;;;;5015910;28;19932;-61
2021/12/28 12:53:50;;;;;;;;;;;8.10;99.90;;;;;;5059933;28;20487;-60
2021/12/28 12:56:20;;;;;;;;;;;8.20;99.90;;;;;;5065159;28;19924;-59
2021/12/28 12:58:49;;;;;;;;;;;8.20;99.90;;;;;;5047167;28;19928;-63
2021/12/28 13:01:26;;;;;;;;;;;8.20;99.90;;;;;;5055114;28;20284;-63
2021/12/28 13:03:54;;;;;;;;;;;8.20;99.90;;;;;;5062310;28;19924;-63
2021/12/28 13:06:40;;;;;;;;;;;8.20;99.90;;;;;;5051865;28;19924;-60
2021/12/28 13:09:09;;;;;;;;;;;8.20;99.90;;;;;;5068431;28;19924;-61
2021/12/28 13:11:37;;;;;;;;;;;8.20;99.90;;;;;;5057101;28;19927;-63
2021/12/28 13:14:05;;;;;;;;;;;8.20;99.90;;;;;;5056224;28;19927;-61
2021/12/28 13:16:33;;;;;;;;;;;8.30;99.90;;;;;;5052428;28;19921;-61
2021/12/28 13:19:09;;;;;;;;;;;8.30;99.90;;;;;;5059848;28;19921;-60
2021/12/28 13:21:37;;;;;;;;;;;8.30;99.90;;;;;;5058970;28;20278;-60
2021/12/28 13:24:06;;;;;;;;;;;8.30;99.90;;;;;;5049269;28;19924;-62
2021/12/28 13:26:50;;;;;;;;;;;8.30;99.90;;;;;;5032325;28;19928;-65
2021/12/28 13:29:25;;;;;;;;;;;8.20;99.90;;;;;;5053192;28;19920;-65
2021/12/28 13:31:53;;;;;;;;;;;8.20;99.90;;;;;;5050663;28;20611;-66
2021/12/28 13:34:21;;;;;;;;;;;8.20;99.90;;;;;;5040314;28;20003;-67
2021/12/28 13:36:50;;;;;;;;;;;8.20;99.90;;;;;;5054540;28;19928;-67
2021/12/28 13:39:17;;;;;;;;;;;8.10;99.90;;;;;;5053797;28;19924;-65
2021/12/28 13:41:49;;;;;;;;;;;8.10;99.90;;;;;;5049977;28;19931;-63
2021/12/28 13:44:17;;;;;;;;;;;8.10;99.90;;;;;;5048558;28;19921;-62
2021/12/28 13:46:44;;;;;;;;;;;8.10;99.90;;;;;;5047058;28;19921;-66
2021/12/28 13:49:14;;;;;;;;;;;8.10;99.90;;;;;;5062803;28;19947;-64
2021/12/28 13:51:42;;;;;;;;;;;8.10;99.90;;;;;;5041081;28;19931;-66
2021/12/28 13:54:09;;;;;;;;;;;8.00;99.90;;;;;;5063290;28;19920;-66
2021/12/28 13:56:38;;;;;;;;;;;8.00;99.90;;;;;;5049206;28;20422;-61
2021/12/28 13:59:07;;;;;;;;;;;8.10;99.90;;;;;;5066060;28;19920;-61
2021/12/28 14:01:38;;;;;;;;;;;8.10;99.90;;;;;;5066395;28;19924;-61
2021/12/28 14:04:08;;;;;;;;;;;8.00;99.90;;;;;;5048556;28;20295;-60
2021/12/28 14:06:41;;;;;;;;;;;8.00;99.90;;;;;;5031614;28;19992;-61
2021/12/28 14:09:09;;;;;;;;;;;8.00;99.90;;;;;;5061128;28;19920;-61
2021/12/28 14:11:45;;;;;;;;;;;7.90;99.90;;;;;;5066095;28;20382;-61
2021/12/28 14:14:12;;;;;;;;;;;7.90;99.90;;;;;;5059417;28;20092;-60
2021/12/28 14:17:12;;;;;;;;;;;8.00;99.90;;;;;;5045921;28;19928;-61
2021/12/28 14:19:40;;;;;;;;;;;7.90;99.90;;;;;;5037323;28;19920;-61
2021/12/28 14:22:15;;;;;;;;;;;7.90;99.90;;;;;;5045740;28;19928;-61
2021/12/28 14:24:44;;;;;;;;;;;7.90;99.90;;;;;;5065614;28;19929;-60
2021/12/28 14:27:24;;;;;;;;;;;7.90;99.90;;;;;;5065801;28;19932;-62
2021/12/28 14:30:05;;;;;;;;;;;7.90;99.90;;;;;;5065585;28;19921;-61
2021/12/28 14:32:40;;;;;;;;;;;7.90;99.90;;;;;;5065708;28;19931;-60
2021/12/28 14:35:10;;;;;;;;;;;7.80;99.90;;;;;;5064643;28;20398;-62
2021/12/28 14:37:39;;;;;;;;;;;7.90;99.90;;;;;;5065227;28;19924;-62
2021/12/28 14:40:23;;;;;;;;;;;7.90;99.90;;;;;;5065750;28;19943;-64
2021/12/28 14:42:51;;;;;;;;;;;7.80;99.90;;;;;;5065331;28;19927;-61
2021/12/28 14:45:23;;;;;;;;;;;7.80;99.90;;;;;;5057480;28;19931;-61